Biloxi, MS

5:50 AM CST on February 07, 2016 (GMT -0600)
Taylor Oaks Subdivision | | Change Station
CLOSE
Current Station
Personal Weather Station
Location: Biloxi, MS
Elevation: 92 ft
Nearby Weather Stations

Elev 92 ft 30.44 °N, 88.95 °W | Updated 13 minutes ago

Clear
Clear
30.9 °F
Feels Like 31 °F
N
0.0
Wind Variable Wind from NNW

Today
High -- | Low -- °F
--% Chance of Precip.
Yesterday
High -- | Low -- °F
Precip. -- in
Pressure 30.28 in
Visibility 10.0 miles
Clouds Clear
Windchill 31 °F
Dew Point 27 °F
Humidity 84%
Rainfall 0.00 in
Snow Depth Not available.
6:42 AM 5:36 PM
Waning Crescent, 2% visible
METAR KBIX 071058Z AUTO 31003KT 10SM CLR 04/M03 A3027 RMK AO2 SLP254 T00371034
Pressure 30.28 in
Visibility 10.0 miles
Clouds Clear
Windchill 31 °F
Dew Point 27 °F
Humidity 84%
Rainfall 0.00 in
Snow Depth Not available.
6:42 AM 5:36 PM
Waning Crescent, 2% visible
METAR KBIX 071058Z AUTO 31003KT 10SM CLR 04/M03 A3027 RMK AO2 SLP254 T00371034

10-Day Weather Forecast

Almanac

Astronomy

Feb. 07, 2016 Rise Set
Actual Time
Civil Twilight
Nautical Twilight
Astronomical Twilight
Moon
Length of Visible Light
Length of Day
Tomorrow will be .
, % of the Moon is Illuminated

Today's Extremes

State Highs State Lows

Community

WunderPhotos

Upload Photos

1,891,182 photos uploaded!

WunderBlog® & News

Nearby

Air Quality

  Air Quality AQ Index Pollutant
Not available.

Snow Depth

Station Depth Elevation

Earthquake Activity

City Distance Mag. Time & Date
Minimum magnitude displayed is 2.5.

Coastal Water Temperatures

Place Temperature

Stations

Nearby Weather Stations

Station Location Temp. Windchill Dew Point Humidity Wind Precip. Elev Updated Type
                   

Watches & Warnings

There are currently no watches in effect.